AVA9474 SKBO-SKCL
Flight info
| Callsign | AVA9474 |
|---|---|
| Flight time | 0h 34m |
| Altitude | 22000 |
| Route | KAMIS6A KAMIS W16 GIR R564 OREGA OREGA5A |
| Aircraft | B788/H-SDE1E2E3FGHIJ2J3J4J5M1RWXY/LB1D1 |
Departure
| Time | 2026-05-04 23:32 |
|---|---|
| Airport | El Dorado International Airport (SKBO) |
Arrival
| Time | 2026-05-05 00:07 |
|---|---|
| Airport | Alfonso Bonilla Aragon International Airport (SKCL) |
| Time | Latitude | Longitude | Altitude | Speed | Heading |
|---|---|---|---|---|---|
| 2026-05-04 22:47 | 4.69897 | -74.14006 | 8371 ft | 0 kts | 218° |
| 2026-05-04 23:14 | 4.69906 | -74.13999 | 8371 ft | 2 kts | 218° |
| 2026-05-04 23:14 | 4.69917 | -74.13990 | 8371 ft | 2 kts | 218° |
| 2026-05-04 23:14 | 4.69929 | -74.13981 | 8371 ft | 2 kts | 218° |
| 2026-05-04 23:15 | 4.69940 | -74.13971 | 8371 ft | 2 kts | 237° |
| 2026-05-04 23:15 | 4.69947 | -74.13957 | 8371 ft | 2 kts | 258° |
| 2026-05-04 23:15 | 4.69949 | -74.13943 | 8371 ft | 2 kts | 278° |
| 2026-05-04 23:15 | 4.69945 | -74.13928 | 8371 ft | 2 kts | 299° |
| 2026-05-04 23:16 | 4.69941 | -74.13921 | 8371 ft | 1 kts | 308° |
| 2026-05-04 23:16 | 4.69939 | -74.13920 | 8371 ft | 0 kts | 308° |
| 2026-05-04 23:18 | 4.69943 | -74.13925 | 8371 ft | 2 kts | 303° |
| 2026-05-04 23:18 | 4.69957 | -74.13948 | 8371 ft | 5 kts | 302° |
| 2026-05-04 23:19 | 4.69985 | -74.13988 | 8371 ft | 8 kts | 306° |
| 2026-05-04 23:19 | 4.70030 | -74.14022 | 8371 ft | 8 kts | 1° |
| 2026-05-04 23:19 | 4.70089 | -74.13997 | 8371 ft | 10 kts | 29° |
| 2026-05-04 23:19 | 4.70155 | -74.13985 | 8371 ft | 10 kts | 329° |
| 2026-05-04 23:20 | 4.70207 | -74.14042 | 8371 ft | 11 kts | 306° |
| 2026-05-04 23:20 | 4.70257 | -74.14108 | 8371 ft | 12 kts | 307° |
| 2026-05-04 23:20 | 4.70309 | -74.14176 | 8371 ft | 12 kts | 307° |
| 2026-05-04 23:20 | 4.70364 | -74.14249 | 8371 ft | 13 kts | 307° |
| 2026-05-04 23:21 | 4.70419 | -74.14323 | 8371 ft | 13 kts | 308° |
| 2026-05-04 23:21 | 4.70473 | -74.14394 | 8371 ft | 12 kts | 307° |
| 2026-05-04 23:21 | 4.70527 | -74.14465 | 8371 ft | 12 kts | 307° |
| 2026-05-04 23:21 | 4.70579 | -74.14533 | 8371 ft | 12 kts | 307° |
| 2026-05-04 23:22 | 4.70632 | -74.14600 | 8371 ft | 11 kts | 309° |
| 2026-05-04 23:22 | 4.70683 | -74.14665 | 8371 ft | 11 kts | 305° |
| 2026-05-04 23:22 | 4.70731 | -74.14732 | 8371 ft | 12 kts | 307° |
| 2026-05-04 23:22 | 4.70795 | -74.14817 | 8371 ft | 17 kts | 307° |
| 2026-05-04 23:23 | 4.70881 | -74.14929 | 8371 ft | 22 kts | 308° |
| 2026-05-04 23:23 | 4.70987 | -74.15069 | 8371 ft | 26 kts | 306° |
| 2026-05-04 23:23 | 4.71098 | -74.15217 | 8371 ft | 26 kts | 307° |
| 2026-05-04 23:23 | 4.71190 | -74.15340 | 8371 ft | 18 kts | 307° |
| 2026-05-04 23:24 | 4.71179 | -74.15413 | 8371 ft | 12 kts | 209° |
| 2026-05-04 23:24 | 4.71108 | -74.15459 | 8371 ft | 12 kts | 217° |
| 2026-05-04 23:24 | 4.71035 | -74.15513 | 8371 ft | 13 kts | 216° |
| 2026-05-04 23:24 | 4.70959 | -74.15569 | 8371 ft | 13 kts | 221° |
| 2026-05-04 23:25 | 4.70885 | -74.15634 | 8371 ft | 14 kts | 221° |
| 2026-05-04 23:25 | 4.70805 | -74.15700 | 8371 ft | 15 kts | 217° |
| 2026-05-04 23:25 | 4.70718 | -74.15765 | 8371 ft | 16 kts | 217° |
| 2026-05-04 23:25 | 4.70620 | -74.15823 | 8371 ft | 16 kts | 204° |
| 2026-05-04 23:26 | 4.70553 | -74.15872 | 8371 ft | 9 kts | 259° |
| 2026-05-04 23:26 | 4.70582 | -74.15937 | 8371 ft | 10 kts | 306° |
| 2026-05-04 23:26 | 4.70631 | -74.16003 | 8371 ft | 12 kts | 307° |
| 2026-05-04 23:26 | 4.70684 | -74.16074 | 8371 ft | 13 kts | 307° |
| 2026-05-04 23:27 | 4.70740 | -74.16148 | 8371 ft | 13 kts | 307° |
| 2026-05-04 23:27 | 4.70804 | -74.16232 | 8371 ft | 16 kts | 307° |
| 2026-05-04 23:27 | 4.70875 | -74.16326 | 8371 ft | 18 kts | 307° |
| 2026-05-04 23:27 | 4.70955 | -74.16431 | 8371 ft | 19 kts | 307° |
| 2026-05-04 23:28 | 4.71042 | -74.16547 | 8371 ft | 21 kts | 307° |
| 2026-05-04 23:28 | 4.71130 | -74.16664 | 8371 ft | 18 kts | 307° |
| 2026-05-04 23:28 | 4.71187 | -74.16738 | 8371 ft | 9 kts | 307° |
| 2026-05-04 23:28 | 4.71195 | -74.16796 | 8371 ft | 8 kts | 238° |
| 2026-05-04 23:29 | 4.71154 | -74.16831 | 8371 ft | 4 kts | 216° |
| 2026-05-04 23:29 | 4.71153 | -74.16832 | 8371 ft | 0 kts | 216° |
| 2026-05-04 23:30 | 4.71152 | -74.16833 | 8371 ft | 0 kts | 216° |
| 2026-05-04 23:30 | 4.71134 | -74.16846 | 8371 ft | 6 kts | 216° |
| 2026-05-04 23:31 | 4.71084 | -74.16878 | 8371 ft | 10 kts | 204° |
| 2026-05-04 23:31 | 4.71037 | -74.16890 | 8371 ft | 0 kts | 187° |
| 2026-05-04 23:31 | 4.71032 | -74.16887 | 8371 ft | 1 kts | 144° |
| 2026-05-04 23:31 | 4.71001 | -74.16851 | 8371 ft | 15 kts | 127° |
| 2026-05-04 23:32 | 4.70821 | -74.16613 | 8371 ft | 83 kts | 127° |
| 2026-05-04 23:32 | 4.70308 | -74.15936 | 8371 ft | 158 kts | 126° |
| 2026-05-04 23:32 | 4.69549 | -74.14944 | 8828 ft | 188 kts | 126° |
| 2026-05-04 23:32 | 4.68776 | -74.13930 | 9623 ft | 186 kts | 126° |
| 2026-05-04 23:33 | 4.67930 | -74.12826 | 10133 ft | 209 kts | 130° |
| 2026-05-04 23:33 | 4.66784 | -74.11956 | 11010 ft | 214 kts | 156° |
| 2026-05-04 23:33 | 4.65302 | -74.11834 | 11795 ft | 222 kts | 192° |
| 2026-05-04 23:33 | 4.63974 | -74.12587 | 12522 ft | 233 kts | 221° |
| 2026-05-04 23:34 | 4.63140 | -74.14115 | 12518 ft | 276 kts | 260° |
| 2026-05-04 23:34 | 4.62999 | -74.16093 | 13391 ft | 291 kts | 266° |
| 2026-05-04 23:34 | 4.62899 | -74.17734 | 14543 ft | 288 kts | 266° |
| 2026-05-04 23:34 | 4.62779 | -74.19670 | 15759 ft | 288 kts | 264° |
| 2026-05-04 23:35 | 4.62538 | -74.21184 | 16575 ft | 292 kts | 257° |
| 2026-05-04 23:35 | 4.61965 | -74.23111 | 17578 ft | 297 kts | 250° |
| 2026-05-04 23:35 | 4.61192 | -74.25060 | 18500 ft | 306 kts | 246° |
| 2026-05-04 23:35 | 4.60155 | -74.27068 | 18514 ft | 346 kts | 239° |
| 2026-05-04 23:36 | 4.58827 | -74.29234 | 18700 ft | 378 kts | 237° |
| 2026-05-04 23:36 | 4.57364 | -74.31454 | 19619 ft | 388 kts | 236° |
| 2026-05-04 23:36 | 4.55865 | -74.33665 | 20738 ft | 391 kts | 235° |
| 2026-05-04 23:36 | 4.54332 | -74.35895 | 21733 ft | 395 kts | 235° |
| 2026-05-04 23:37 | 4.52735 | -74.38206 | 21972 ft | 410 kts | 235° |
| 2026-05-04 23:37 | 4.51119 | -74.40540 | 21999 ft | 413 kts | 235° |
| 2026-05-04 23:37 | 4.49482 | -74.42903 | 21999 ft | 413 kts | 235° |
| 2026-05-04 23:37 | 4.47835 | -74.45279 | 21999 ft | 412 kts | 235° |
| 2026-05-04 23:38 | 4.46190 | -74.47652 | 21999 ft | 412 kts | 235° |
| 2026-05-04 23:38 | 4.44578 | -74.49976 | 21999 ft | 412 kts | 235° |
| 2026-05-04 23:38 | 4.42948 | -74.52327 | 21999 ft | 412 kts | 235° |
| 2026-05-04 23:38 | 4.41308 | -74.54691 | 21999 ft | 412 kts | 235° |
| 2026-05-04 23:39 | 4.39674 | -74.57040 | 21999 ft | 412 kts | 235° |
| 2026-05-04 23:39 | 4.38047 | -74.59383 | 21999 ft | 412 kts | 235° |
| 2026-05-04 23:39 | 4.36398 | -74.61755 | 21999 ft | 412 kts | 235° |
| 2026-05-04 23:39 | 4.34781 | -74.64080 | 21999 ft | 412 kts | 235° |
| 2026-05-04 23:40 | 4.33138 | -74.66442 | 21999 ft | 412 kts | 235° |
| 2026-05-04 23:40 | 4.31503 | -74.68797 | 21999 ft | 412 kts | 235° |
| 2026-05-04 23:40 | 4.29869 | -74.71154 | 21999 ft | 412 kts | 235° |
| 2026-05-04 23:40 | 4.28234 | -74.73514 | 21999 ft | 412 kts | 235° |
| 2026-05-04 23:41 | 4.26620 | -74.75845 | 21999 ft | 412 kts | 235° |
| 2026-05-04 23:41 | 4.24988 | -74.78200 | 21999 ft | 412 kts | 235° |
| 2026-05-04 23:41 | 4.23521 | -74.80317 | 21999 ft | 412 kts | 235° |
| 2026-05-04 23:41 | 4.21893 | -74.82666 | 21999 ft | 412 kts | 235° |
| 2026-05-04 23:42 | 4.20269 | -74.85010 | 21999 ft | 412 kts | 235° |
| 2026-05-04 23:42 | 4.18805 | -74.87494 | 21997 ft | 412 kts | 243° |
| 2026-05-04 23:42 | 4.17491 | -74.89993 | 21999 ft | 412 kts | 242° |
| 2026-05-04 23:42 | 4.16166 | -74.92547 | 22000 ft | 412 kts | 242° |
| 2026-05-04 23:43 | 4.14848 | -74.95095 | 21999 ft | 412 kts | 242° |
| 2026-05-04 23:43 | 4.13539 | -74.97635 | 21999 ft | 412 kts | 242° |
| 2026-05-04 23:43 | 4.12235 | -75.00170 | 21999 ft | 412 kts | 243° |
| 2026-05-04 23:43 | 4.10924 | -75.02721 | 21999 ft | 412 kts | 243° |
| 2026-05-04 23:44 | 4.09612 | -75.05276 | 21701 ft | 412 kts | 243° |
| 2026-05-04 23:44 | 4.08307 | -75.07821 | 21296 ft | 408 kts | 243° |
| 2026-05-04 23:44 | 4.07017 | -75.10335 | 20894 ft | 405 kts | 243° |
| 2026-05-04 23:44 | 4.05730 | -75.12843 | 20490 ft | 402 kts | 243° |
| 2026-05-04 23:45 | 4.04457 | -75.15327 | 20089 ft | 400 kts | 243° |
| 2026-05-04 23:45 | 4.03205 | -75.17767 | 19692 ft | 398 kts | 243° |
| 2026-05-04 23:45 | 4.01947 | -75.20221 | 19291 ft | 395 kts | 243° |
| 2026-05-04 23:45 | 4.00694 | -75.22663 | 18889 ft | 393 kts | 243° |
| 2026-05-04 23:46 | 3.99449 | -75.25092 | 18487 ft | 391 kts | 243° |
| 2026-05-04 23:46 | 3.98239 | -75.27451 | 18627 ft | 367 kts | 243° |
| 2026-05-04 23:46 | 3.97091 | -75.29688 | 19307 ft | 370 kts | 243° |
| 2026-05-04 23:46 | 3.95893 | -75.32023 | 19946 ft | 385 kts | 243° |
| 2026-05-04 23:47 | 3.94649 | -75.34448 | 20497 ft | 391 kts | 243° |
| 2026-05-04 23:47 | 3.93416 | -75.36852 | 20954 ft | 394 kts | 243° |
| 2026-05-04 23:47 | 3.92150 | -75.39318 | 21336 ft | 396 kts | 243° |
| 2026-05-04 23:47 | 3.90906 | -75.41743 | 21629 ft | 397 kts | 243° |
| 2026-05-04 23:48 | 3.89631 | -75.44228 | 21842 ft | 398 kts | 243° |
| 2026-05-04 23:48 | 3.88377 | -75.46669 | 21966 ft | 399 kts | 243° |
| 2026-05-04 23:48 | 3.87109 | -75.49152 | 21954 ft | 401 kts | 243° |
| 2026-05-04 23:48 | 3.85905 | -75.51678 | 21658 ft | 398 kts | 244° |
| 2026-05-04 23:49 | 3.84721 | -75.54170 | 21403 ft | 395 kts | 244° |
| 2026-05-04 23:49 | 3.83562 | -75.56622 | 21165 ft | 394 kts | 244° |
| 2026-05-04 23:49 | 3.82391 | -75.59100 | 20937 ft | 392 kts | 244° |
| 2026-05-04 23:49 | 3.81225 | -75.61567 | 20722 ft | 391 kts | 244° |
| 2026-05-04 23:50 | 3.80071 | -75.64008 | 20522 ft | 390 kts | 244° |
| 2026-05-04 23:50 | 3.78900 | -75.66486 | 20330 ft | 389 kts | 244° |
| 2026-05-04 23:50 | 3.77759 | -75.68903 | 20155 ft | 388 kts | 244° |
| 2026-05-04 23:50 | 3.76606 | -75.71345 | 19989 ft | 387 kts | 244° |
| 2026-05-04 23:51 | 3.75452 | -75.73789 | 19808 ft | 386 kts | 244° |
| 2026-05-04 23:51 | 3.74309 | -75.76208 | 19610 ft | 385 kts | 244° |
| 2026-05-04 23:51 | 3.73171 | -75.78618 | 19395 ft | 383 kts | 244° |
| 2026-05-04 23:51 | 3.72041 | -75.81009 | 19163 ft | 382 kts | 244° |
| 2026-05-04 23:52 | 3.70901 | -75.83421 | 18911 ft | 381 kts | 244° |
| 2026-05-04 23:52 | 3.69780 | -75.85793 | 18646 ft | 379 kts | 244° |
| 2026-05-04 23:52 | 3.68659 | -75.88167 | 18362 ft | 378 kts | 244° |
| 2026-05-04 23:52 | 3.67542 | -75.90530 | 18063 ft | 376 kts | 244° |
| 2026-05-04 23:53 | 3.66424 | -75.92900 | 17745 ft | 374 kts | 244° |
| 2026-05-04 23:53 | 3.65366 | -75.95148 | 17427 ft | 372 kts | 244° |
| 2026-05-04 23:53 | 3.64258 | -75.97498 | 17078 ft | 370 kts | 244° |
| 2026-05-04 23:53 | 3.63170 | -75.99802 | 16719 ft | 368 kts | 244° |
| 2026-05-04 23:54 | 3.62098 | -76.02071 | 16308 ft | 349 kts | 244° |
| 2026-05-04 23:54 | 3.61074 | -76.04236 | 15978 ft | 338 kts | 244° |
| 2026-05-04 23:54 | 3.60086 | -76.06329 | 15805 ft | 322 kts | 244° |
| 2026-05-04 23:54 | 3.59157 | -76.08295 | 15786 ft | 304 kts | 244° |
| 2026-05-04 23:55 | 3.58267 | -76.10177 | 15801 ft | 301 kts | 244° |
| 2026-05-04 23:55 | 3.57376 | -76.12064 | 15805 ft | 301 kts | 244° |
| 2026-05-04 23:55 | 3.55573 | -76.15882 | 15805 ft | 302 kts | 244° |
| 2026-05-04 23:56 | 3.54684 | -76.17763 | 15805 ft | 302 kts | 244° |
| 2026-05-04 23:56 | 3.53782 | -76.19670 | 15363 ft | 312 kts | 244° |
| 2026-05-04 23:56 | 3.52833 | -76.21682 | 13553 ft | 332 kts | 244° |
| 2026-05-04 23:56 | 3.51868 | -76.23725 | 12264 ft | 331 kts | 244° |
| 2026-05-04 23:57 | 3.50900 | -76.25774 | 11292 ft | 318 kts | 244° |
| 2026-05-04 23:57 | 3.49664 | -76.27454 | 10822 ft | 293 kts | 216° |
| 2026-05-04 23:57 | 3.47903 | -76.28384 | 10498 ft | 284 kts | 202° |
| 2026-05-04 23:57 | 3.46072 | -76.29055 | 10132 ft | 280 kts | 198° |
| 2026-05-04 23:58 | 3.44223 | -76.29602 | 9763 ft | 272 kts | 195° |
| 2026-05-04 23:58 | 3.42665 | -76.30012 | 9512 ft | 251 kts | 194° |
| 2026-05-04 23:58 | 3.41190 | -76.30376 | 9274 ft | 230 kts | 193° |
| 2026-05-04 23:58 | 3.39699 | -76.30730 | 8998 ft | 218 kts | 193° |
| 2026-05-04 23:59 | 3.38236 | -76.31070 | 8705 ft | 210 kts | 193° |
| 2026-05-04 23:59 | 3.36862 | -76.31384 | 8407 ft | 200 kts | 193° |
| 2026-05-04 23:59 | 3.35536 | -76.31684 | 8109 ft | 192 kts | 193° |
| 2026-05-04 23:59 | 3.34260 | -76.31972 | 7812 ft | 185 kts | 192° |
| 2026-05-05 00:00 | 3.33016 | -76.32250 | 7515 ft | 179 kts | 192° |
| 2026-05-05 00:00 | 3.32618 | -76.32340 | 7421 ft | 178 kts | 192° |
| 2026-05-05 00:00 | 3.30665 | -76.32923 | 6974 ft | 176 kts | 217° |
| 2026-05-05 00:00 | 3.30030 | -76.33935 | 7000 ft | 176 kts | 258° |
| 2026-05-05 00:01 | 3.30170 | -76.35130 | 6980 ft | 177 kts | 297° |
| 2026-05-05 00:01 | 3.30957 | -76.36055 | 7078 ft | 176 kts | 316° |
| 2026-05-05 00:01 | 3.31865 | -76.36890 | 7001 ft | 177 kts | 319° |
| 2026-05-05 00:01 | 3.32804 | -76.37694 | 6931 ft | 178 kts | 319° |
| 2026-05-05 00:02 | 3.33746 | -76.38501 | 6666 ft | 177 kts | 319° |
| 2026-05-05 00:02 | 3.34641 | -76.39330 | 6438 ft | 175 kts | 316° |
| 2026-05-05 00:02 | 3.35512 | -76.40186 | 6232 ft | 175 kts | 316° |
| 2026-05-05 00:02 | 3.36468 | -76.40845 | 5912 ft | 166 kts | 341° |
| 2026-05-05 00:03 | 3.37584 | -76.40888 | 5569 ft | 159 kts | 7° |
| 2026-05-05 00:03 | 3.38667 | -76.40745 | 5251 ft | 156 kts | 9° |
| 2026-05-05 00:03 | 3.39734 | -76.40587 | 4946 ft | 155 kts | 9° |
| 2026-05-05 00:03 | 3.40797 | -76.40420 | 4643 ft | 155 kts | 10° |
| 2026-05-05 00:04 | 3.41841 | -76.40231 | 4356 ft | 153 kts | 12° |
| 2026-05-05 00:04 | 3.42887 | -76.40004 | 4359 ft | 152 kts | 14° |
| 2026-05-05 00:04 | 3.43919 | -76.39761 | 4372 ft | 153 kts | 12° |
| 2026-05-05 00:04 | 3.45002 | -76.39632 | 4449 ft | 160 kts | 4° |
| 2026-05-05 00:05 | 3.46123 | -76.39555 | 4572 ft | 163 kts | 3° |
| 2026-05-05 00:05 | 3.47251 | -76.39397 | 4555 ft | 162 kts | 8° |
| 2026-05-05 00:05 | 3.48333 | -76.39223 | 4296 ft | 157 kts | 9° |
| 2026-05-05 00:05 | 3.49407 | -76.39030 | 3987 ft | 153 kts | 10° |
| 2026-05-05 00:06 | 3.50450 | -76.38844 | 3775 ft | 155 kts | 9° |
| 2026-05-05 00:06 | 3.51502 | -76.38660 | 3521 ft | 152 kts | 10° |
| 2026-05-05 00:06 | 3.52531 | -76.38484 | 3321 ft | 150 kts | 10° |
| 2026-05-05 00:06 | 3.53553 | -76.38302 | 3183 ft | 143 kts | 9° |
| 2026-05-05 00:07 | 3.54441 | -76.38147 | 3176 ft | 110 kts | 10° |
| 2026-05-05 00:07 | 3.55071 | -76.38039 | 3176 ft | 75 kts | 10° |
| 2026-05-05 00:07 | 3.55458 | -76.37971 | 3176 ft | 31 kts | 10° |
| 2026-05-05 00:07 | 3.55629 | -76.37957 | 3176 ft | 16 kts | 330° |
| 2026-05-05 00:08 | 3.55664 | -76.38059 | 3176 ft | 15 kts | 278° |
| 2026-05-05 00:08 | 3.55616 | -76.38106 | 3176 ft | 11 kts | 190° |
| 2026-05-05 00:08 | 3.55515 | -76.38125 | 3176 ft | 18 kts | 190° |
| 2026-05-05 00:08 | 3.55391 | -76.38148 | 3176 ft | 18 kts | 190° |
| 2026-05-05 00:09 | 3.55283 | -76.38166 | 3176 ft | 13 kts | 189° |
| 2026-05-05 00:09 | 3.55180 | -76.38184 | 3176 ft | 16 kts | 189° |
| 2026-05-05 00:09 | 3.55061 | -76.38204 | 3176 ft | 18 kts | 191° |
| 2026-05-05 00:09 | 3.54999 | -76.38216 | 3176 ft | 8 kts | 190° |
| 2026-05-05 00:10 | 3.54931 | -76.38228 | 3176 ft | 11 kts | 190° |
| 2026-05-05 00:10 | 3.54878 | -76.38237 | 3176 ft | 0 kts | 189° |
| 2026-05-05 00:12 | 3.54876 | -76.38238 | 3176 ft | 3 kts | 189° |
| 2026-05-05 00:12 | 3.54767 | -76.38255 | 3176 ft | 23 kts | 189° |
| 2026-05-05 00:12 | 3.54583 | -76.38287 | 3176 ft | 30 kts | 190° |
| 2026-05-05 00:12 | 3.54367 | -76.38325 | 3176 ft | 32 kts | 189° |
| 2026-05-05 00:13 | 3.54140 | -76.38364 | 3176 ft | 34 kts | 189° |
| 2026-05-05 00:13 | 3.53917 | -76.38403 | 3176 ft | 30 kts | 190° |
| 2026-05-05 00:13 | 3.53803 | -76.38422 | 3176 ft | 9 kts | 190° |
| 2026-05-05 00:13 | 3.53697 | -76.38442 | 3176 ft | 26 kts | 190° |
| 2026-05-05 00:14 | 3.53612 | -76.38459 | 3176 ft | 9 kts | 201° |
| 2026-05-05 00:14 | 3.53559 | -76.38506 | 3176 ft | 7 kts | 245° |
| 2026-05-05 00:14 | 3.53551 | -76.38557 | 3176 ft | 9 kts | 274° |
| 2026-05-05 00:14 | 3.53559 | -76.38608 | 3176 ft | 2 kts | 279° |
| 2026-05-05 00:15 | 3.53561 | -76.38620 | 3176 ft | 0 kts | 280° |